INDIA METEOROLOGICAL DEPARTMENT, R.M.C. NEW DELHI
Dated:13-06-2024
METARS


Ahmedabad  
VAAH 131930Z 22008KT 3500 HZ FEW018 BKN070 30/22 Q1003 TEMPO 3000 -RA=
Bangalore  
VOBL 131930Z 27007KT 6000 SCT012 BKN080 22/20 Q1013 NOSIG=
Bhubaneswar
VEBS 131930Z 22011KT 3000 -TSRA BKN016 FEW030CB OVC090 28/24 Q1002 NOSIG=
Chennai    
VOMM 131930Z 25005KT 6000 SCT020 SCT100 29/25 Q1005 NOSIG=
Coimbatore 
VOCB 131930Z 23009KT 5000 BR FEW012 BKN080 25/24 Q1011 NOSIG=
Delhi      
VIDP 131930Z 24008KT 4000 HZ FEW100 36/13 Q0999 NOSIG=
Gauhati    
VEGT 131900Z 02003KT 2500 BR SCT018 BKN100 30/30 Q1000 NOSIG=
Gaya       
VEGY 131900Z 00000KT 3500 HZ FEW020 SCT100 35/26 Q0997 =
Hyderabad  
VOHS 131930Z 28010G20KT 5000 HZ SCT020 SCT100 24/21 Q1009 NOSIG=
Indore     
VAID 131900Z 24006KT 6000 FEW025 BKN100 28/20 Q1007 NOSIG=
Jaipur     
VIJP 131930Z 27005KT 4000 HZ SCT100 31/22 Q1003 NOSIG=
Kochi      
VOCI 131900Z 13002KT 4000 BR SCT012 SCT080 27/26 Q1009 NOSIG=
Kolkata    
VECC 131930Z 15010KT 3500 HZ SCT020 SCT100 31/29 Q0998 NOSIG=
Kozhikode  
VOCL 131930Z 09001KT 5000 BR FEW012 SCT080 25/23 Q1009 NOSIG=
Lucknow    
VILK 131930Z 26004KT 5000 HZ SCT020 BKN100 35/19 Q0998 NOSIG=
Mumbai     
VABB 131930Z 26006KT 2000 -TSRA SCT018 SCT025 FEW030CB BKN090 27/23 Q1006 TEMPO 1500 TSRA=
Nagpur     
VANP 131930Z 24007KT 4000 HZ SCT020 SCT100 32/24 Q1005 NOSIG=
Patna      
VEPT 131900Z 08009KT 3500 BR SCT018 SCT100 33/31 Q0997 NOSIG=
Surat     
VASU 131930Z 23013KT 6000 SCT020 30/26 Q1005 NOSIG=
Ranchi     
VERC 131900Z 25004KT 5000 HZ SCT020 BKN100 28/18 Q1004 NOSIG=
Trichy     
VOTR 131930Z 25008KT 5000 HZ FEW016 SCT100 29/24 Q1007 NOSIG=
Trivandrum 
VOTV 131930Z 36003KT 4000 BR FEW015 28/25 Q1009 NOSIG=
Varanasi   
VEBN 131930Z 27006KT 3000 HZ FEW025 SCT100 36/19 Q0997 NOSIG=
Kathmandu  
VNKT 131930Z 21003KT 7000 FEW015 SCT030 25/22 Q1008 NOSIG=